sensor_id;sensor_type;location;lat;lon;timestamp;pressure;altitude;pressure_sealevel;temperature;humidity
56400;BME280;42298;53.638;9.876;2022-10-15T00:00:01;100405.69;;;18.79;71.81
56400;BME280;42298;53.638;9.876;2022-10-15T00:02:26;100400.56;;;18.81;71.72
56400;BME280;42298;53.638;9.876;2022-10-15T00:04:51;100398.56;;;18.81;72.05
56400;BME280;42298;53.638;9.876;2022-10-15T00:07:17;100397.06;;;18.87;71.69
56400;BME280;42298;53.638;9.876;2022-10-15T00:09:42;100396.22;;;18.83;71.57
56400;BME280;42298;53.638;9.876;2022-10-15T00:12:07;100402.28;;;18.89;71.85
56400;BME280;42298;53.638;9.876;2022-10-15T00:14:33;100403.53;;;18.91;71.55
56400;BME280;42298;53.638;9.876;2022-10-15T00:16:58;100398.63;;;18.85;71.61
56400;BME280;42298;53.638;9.876;2022-10-15T00:19:23;100398.06;;;18.76;72.08
56400;BME280;42298;53.638;9.876;2022-10-15T00:21:49;100388.84;;;18.72;72.61
56400;BME280;42298;53.638;9.876;2022-10-15T00:24:14;100389.44;;;18.84;72.32
56400;BME280;42298;53.638;9.876;2022-10-15T00:26:39;100386.53;;;18.77;72.47
56400;BME280;42298;53.638;9.876;2022-10-15T00:29:04;100393.91;;;18.89;72.45
56400;BME280;42298;53.638;9.876;2022-10-15T00:31:30;100400.91;;;19.02;72.23
56400;BME280;42298;53.638;9.876;2022-10-15T00:33:57;100396.94;;;19.03;71.65
56400;BME280;42298;53.638;9.876;2022-10-15T00:36:26;100396.69;;;18.89;72.27
56400;BME280;42298;53.638;9.876;2022-10-15T00:38:52;100398.81;;;18.73;72.83
56400;BME280;42298;53.638;9.876;2022-10-15T00:41:20;100388.09;;;18.75;72.88
56400;BME280;42298;53.638;9.876;2022-10-15T00:43:51;100399.81;;;18.84;72.63
56400;BME280;42298;53.638;9.876;2022-10-15T00:46:24;100400.22;;;18.86;72.25
56400;BME280;42298;53.638;9.876;2022-10-15T00:49:00;100382.25;;;18.83;72.74
56400;BME280;42298;53.638;9.876;2022-10-15T00:51:32;100401.91;;;18.90;72.78
56400;BME280;42298;53.638;9.876;2022-10-15T00:54:00;100397.88;;;18.88;72.20
56400;BME280;42298;53.638;9.876;2022-10-15T00:56:26;100396.22;;;18.83;71.98
56400;BME280;42298;53.638;9.876;2022-10-15T00:58:54;100394.91;;;18.77;72.38
56400;BME280;42298;53.638;9.876;2022-10-15T01:01:20;100394.53;;;18.79;72.70
56400;BME280;42298;53.638;9.876;2022-10-15T01:03:45;100400.22;;;18.86;72.37
56400;BME280;42298;53.638;9.876;2022-10-15T01:06:11;100392.69;;;18.86;72.43
56400;BME280;42298;53.638;9.876;2022-10-15T01:08:36;100387.91;;;18.87;72.65
56400;BME280;42298;53.638;9.876;2022-10-15T01:11:23;100387.84;;;18.83;71.95
56400;BME280;42298;53.638;9.876;2022-10-15T01:16:30;100386.41;;;18.93;72.21
56400;BME280;42298;53.638;9.876;2022-10-15T01:21:59;100374.91;;;18.98;71.58
56400;BME280;42298;53.638;9.876;2022-10-15T01:24:42;100383.63;;;18.93;71.83
56400;BME280;42298;53.638;9.876;2022-10-15T01:30:00;100387.94;;;18.90;71.85
56400;BME280;42298;53.638;9.876;2022-10-15T01:32:34;100387.09;;;18.86;71.34
56400;BME280;42298;53.638;9.876;2022-10-15T01:35:34;100383.81;;;18.81;71.59
56400;BME280;42298;53.638;9.876;2022-10-15T01:40:54;100386.09;;;18.75;72.05
56400;BME280;42298;53.638;9.876;2022-10-15T01:43:29;100393.88;;;18.85;71.63
56400;BME280;42298;53.638;9.876;2022-10-15T01:46:02;100390.34;;;18.88;70.83
56400;BME280;42298;53.638;9.876;2022-10-15T01:48:30;100386.28;;;18.86;71.01
56400;BME280;42298;53.638;9.876;2022-10-15T01:51:02;100395.91;;;18.88;70.72
56400;BME280;42298;53.638;9.876;2022-10-15T01:53:29;100390.72;;;18.87;70.69
56400;BME280;42298;53.638;9.876;2022-10-15T01:56:03;100392.75;;;18.90;70.83
56400;BME280;42298;53.638;9.876;2022-10-15T01:58:30;100389.81;;;18.83;70.28
56400;BME280;42298;53.638;9.876;2022-10-15T02:00:58;100390.56;;;18.80;70.29
56400;BME280;42298;53.638;9.876;2022-10-15T02:03:24;100381.63;;;18.71;70.53
56400;BME280;42298;53.638;9.876;2022-10-15T02:05:55;100387.97;;;18.68;70.67
56400;BME280;42298;53.638;9.876;2022-10-15T02:08:44;100384.44;;;18.71;70.79
56400;BME280;42298;53.638;9.876;2022-10-15T02:11:17;100385.13;;;18.64;70.27
56400;BME280;42298;53.638;9.876;2022-10-15T02:16:43;100379.00;;;18.55;70.91
56400;BME280;42298;53.638;9.876;2022-10-15T02:19:31;100383.84;;;18.58;70.85
56400;BME280;42298;53.638;9.876;2022-10-15T02:22:20;100374.16;;;18.52;70.17
56400;BME280;42298;53.638;9.876;2022-10-15T02:24:54;100361.47;;;18.36;71.10
56400;BME280;42298;53.638;9.876;2022-10-15T02:27:22;100369.22;;;18.42;71.06
56400;BME280;42298;53.638;9.876;2022-10-15T02:29:49;100368.47;;;18.45;70.38
56400;BME280;42298;53.638;9.876;2022-10-15T02:32:19;100375.69;;;18.50;70.89
56400;BME280;42298;53.638;9.876;2022-10-15T02:34:45;100369.75;;;18.51;70.79
56400;BME280;42298;53.638;9.876;2022-10-15T02:37:11;100371.38;;;18.52;70.34
56400;BME280;42298;53.638;9.876;2022-10-15T02:39:38;100376.88;;;18.49;70.10
56400;BME280;42298;53.638;9.876;2022-10-15T02:42:03;100365.69;;;18.45;70.60
56400;BME280;42298;53.638;9.876;2022-10-15T02:44:29;100366.91;;;18.48;70.46
56400;BME280;42298;53.638;9.876;2022-10-15T02:46:56;100356.44;;;18.41;69.79
56400;BME280;42298;53.638;9.876;2022-10-15T02:49:23;100355.09;;;18.35;69.85
56400;BME280;42298;53.638;9.876;2022-10-15T02:51:50;100369.13;;;18.39;69.99
56400;BME280;42298;53.638;9.876;2022-10-15T02:54:16;100365.91;;;18.37;70.05
56400;BME280;42298;53.638;9.876;2022-10-15T02:56:42;100359.44;;;18.33;69.44
56400;BME280;42298;53.638;9.876;2022-10-15T02:59:07;100361.28;;;18.25;69.88
56400;BME280;42298;53.638;9.876;2022-10-15T03:01:33;100359.25;;;18.22;69.44
56400;BME280;42298;53.638;9.876;2022-10-15T03:03:58;100362.47;;;18.24;69.27
56400;BME280;42298;53.638;9.876;2022-10-15T03:06:24;100365.81;;;18.11;69.06
56400;BME280;42298;53.638;9.876;2022-10-15T03:08:49;100367.13;;;17.98;69.79
56400;BME280;42298;53.638;9.876;2022-10-15T03:11:14;100361.41;;;17.91;69.35
56400;BME280;42298;53.638;9.876;2022-10-15T03:13:40;100359.97;;;17.78;69.64
56400;BME280;42298;53.638;9.876;2022-10-15T03:16:07;100357.75;;;17.68;69.32
56400;BME280;42298;53.638;9.876;2022-10-15T03:18:33;100368.38;;;17.62;69.77
56400;BME280;42298;53.638;9.876;2022-10-15T03:20:59;100371.38;;;17.54;70.19
56400;BME280;42298;53.638;9.876;2022-10-15T03:23:25;100363.75;;;17.51;69.89
56400;BME280;42298;53.638;9.876;2022-10-15T03:25:50;100362.78;;;17.43;69.87
56400;BME280;42298;53.638;9.876;2022-10-15T03:28:16;100356.59;;;17.34;70.08
56400;BME280;42298;53.638;9.876;2022-10-15T03:30:42;100365.16;;;17.26;70.38
56400;BME280;42298;53.638;9.876;2022-10-15T03:33:08;100369.63;;;17.30;70.29
56400;BME280;42298;53.638;9.876;2022-10-15T03:35:33;100366.75;;;17.27;69.60
56400;BME280;42298;53.638;9.876;2022-10-15T03:37:58;100370.72;;;17.26;69.95
56400;BME280;42298;53.638;9.876;2022-10-15T03:40:24;100376.81;;;17.31;69.40
56400;BME280;42298;53.638;9.876;2022-10-15T03:42:50;100370.91;;;17.17;70.17
56400;BME280;42298;53.638;9.876;2022-10-15T03:45:17;100371.38;;;17.19;70.46
56400;BME280;42298;53.638;9.876;2022-10-15T03:47:42;100368.59;;;17.19;70.74
56400;BME280;42298;53.638;9.876;2022-10-15T03:50:08;100374.75;;;17.28;70.53
56400;BME280;42298;53.638;9.876;2022-10-15T03:52:35;100371.25;;;17.31;70.62
56400;BME280;42298;53.638;9.876;2022-10-15T03:55:00;100366.06;;;17.14;70.85
56400;BME280;42298;53.638;9.876;2022-10-15T03:57:26;100374.78;;;17.12;71.04
56400;BME280;42298;53.638;9.876;2022-10-15T03:59:51;100370.66;;;17.06;70.98
56400;BME280;42298;53.638;9.876;2022-10-15T04:02:17;100377.13;;;17.10;71.39
56400;BME280;42298;53.638;9.876;2022-10-15T04:04:42;100371.81;;;17.21;70.82
56400;BME280;42298;53.638;9.876;2022-10-15T04:07:08;100372.06;;;17.32;70.52
56400;BME280;42298;53.638;9.876;2022-10-15T04:09:33;100376.22;;;17.41;70.65
56400;BME280;42298;53.638;9.876;2022-10-15T04:11:58;100378.78;;;17.46;70.68
56400;BME280;42298;53.638;9.876;2022-10-15T04:14:24;100374.81;;;17.47;70.11
56400;BME280;42298;53.638;9.876;2022-10-15T04:16:49;100379.38;;;17.40;70.79
56400;BME280;42298;53.638;9.876;2022-10-15T04:19:14;100372.13;;;17.35;70.68
56400;BME280;42298;53.638;9.876;2022-10-15T04:21:40;100366.13;;;17.33;70.87
56400;BME280;42298;53.638;9.876;2022-10-15T04:24:07;100376.09;;;17.34;70.86
56400;BME280;42298;53.638;9.876;2022-10-15T04:26:32;100380.56;;;17.39;70.89
56400;BME280;42298;53.638;9.876;2022-10-15T04:28:57;100376.44;;;17.33;70.71
56400;BME280;42298;53.638;9.876;2022-10-15T04:31:23;100378.78;;;17.31;71.53
56400;BME280;42298;53.638;9.876;2022-10-15T04:33:49;100375.72;;;17.36;71.21
56400;BME280;42298;53.638;9.876;2022-10-15T04:36:14;100376.34;;;17.29;71.04
56400;BME280;42298;53.638;9.876;2022-10-15T04:38:39;100383.91;;;17.29;71.32
56400;BME280;42298;53.638;9.876;2022-10-15T04:41:07;100384.06;;;17.36;71.29
56400;BME280;42298;53.638;9.876;2022-10-15T04:43:34;100390.38;;;17.33;71.37
56400;BME280;42298;53.638;9.876;2022-10-15T04:46:01;100397.47;;;17.30;71.16
56400;BME280;42298;53.638;9.876;2022-10-15T04:48:27;100390.38;;;17.33;71.46
56400;BME280;42298;53.638;9.876;2022-10-15T04:50:53;100390.28;;;17.29;71.59
56400;BME280;42298;53.638;9.876;2022-10-15T04:53:19;100386.13;;;17.39;71.75
56400;BME280;42298;53.638;9.876;2022-10-15T04:55:44;100399.22;;;17.38;71.14
56400;BME280;42298;53.638;9.876;2022-10-15T04:58:10;100395.19;;;17.36;71.13
56400;BME280;42298;53.638;9.876;2022-10-15T05:00:35;100395.56;;;17.34;71.31
56400;BME280;42298;53.638;9.876;2022-10-15T05:03:00;100404.75;;;17.35;71.10
56400;BME280;42298;53.638;9.876;2022-10-15T05:05:25;100402.22;;;17.30;71.59
56400;BME280;42298;53.638;9.876;2022-10-15T05:07:51;100407.06;;;17.33;71.17
56400;BME280;42298;53.638;9.876;2022-10-15T05:10:16;100397.38;;;17.27;71.42
56400;BME280;42298;53.638;9.876;2022-10-15T05:12:43;100409.13;;;17.36;71.23
56400;BME280;42298;53.638;9.876;2022-10-15T05:15:08;100402.69;;;17.32;71.02
56400;BME280;42298;53.638;9.876;2022-10-15T05:17:34;100421.06;;;17.36;71.48
56400;BME280;42298;53.638;9.876;2022-10-15T05:19:59;100417.19;;;17.41;70.79
56400;BME280;42298;53.638;9.876;2022-10-15T05:22:24;100412.00;;;17.39;71.02
56400;BME280;42298;53.638;9.876;2022-10-15T05:24:50;100415.06;;;17.34;70.94
56400;BME280;42298;53.638;9.876;2022-10-15T05:27:16;100412.91;;;17.28;70.92
56400;BME280;42298;53.638;9.876;2022-10-15T05:29:42;100420.63;;;17.34;71.07
56400;BME280;42298;53.638;9.876;2022-10-15T05:32:07;100414.69;;;17.36;70.62
56400;BME280;42298;53.638;9.876;2022-10-15T05:34:32;100411.09;;;17.35;71.01
56400;BME280;42298;53.638;9.876;2022-10-15T05:36:58;100418.81;;;17.42;70.75
56400;BME280;42298;53.638;9.876;2022-10-15T05:39:23;100417.03;;;17.34;70.87
56400;BME280;42298;53.638;9.876;2022-10-15T05:41:49;100422.16;;;17.32;71.02
56400;BME280;42298;53.638;9.876;2022-10-15T05:44:14;100430.69;;;17.23;71.12
56400;BME280;42298;53.638;9.876;2022-10-15T05:46:40;100430.69;;;17.23;71.11
56400;BME280;42298;53.638;9.876;2022-10-15T05:49:05;100435.63;;;17.30;71.36
56400;BME280;42298;53.638;9.876;2022-10-15T05:51:31;100438.31;;;17.26;70.42
56400;BME280;42298;53.638;9.876;2022-10-15T05:53:57;100433.09;;;17.25;71.05
56400;BME280;42298;53.638;9.876;2022-10-15T05:56:23;100439.59;;;17.29;70.54
56400;BME280;42298;53.638;9.876;2022-10-15T05:58:49;100438.34;;;17.10;70.61
56400;BME280;42298;53.638;9.876;2022-10-15T06:01:14;100444.91;;;17.02;70.98
56400;BME280;42298;53.638;9.876;2022-10-15T06:03:40;100452.06;;;17.03;70.72
56400;BME280;42298;53.638;9.876;2022-10-15T06:06:14;100444.91;;;17.02;71.11
56400;BME280;42298;53.638;9.876;2022-10-15T06:08:39;100445.25;;;17.01;71.59
56400;BME280;42298;53.638;9.876;2022-10-15T06:11:05;100444.63;;;17.07;70.97
56400;BME280;42298;53.638;9.876;2022-10-15T06:13:30;100444.19;;;17.21;70.50
56400;BME280;42298;53.638;9.876;2022-10-15T06:15:55;100440.94;;;17.19;70.88
56400;BME280;42298;53.638;9.876;2022-10-15T06:18:21;100437.69;;;17.17;71.05
56400;BME280;42298;53.638;9.876;2022-10-15T06:20:51;100442.03;;;17.14;70.91
56400;BME280;42298;53.638;9.876;2022-10-15T06:23:17;100437.81;;;17.05;71.14
56400;BME280;42298;53.638;9.876;2022-10-15T06:25:42;100448.66;;;17.10;71.19
56400;BME280;42298;53.638;9.876;2022-10-15T06:28:07;100445.63;;;17.15;71.01
56400;BME280;42298;53.638;9.876;2022-10-15T06:30:33;100462.38;;;17.18;70.95
56400;BME280;42298;53.638;9.876;2022-10-15T06:32:59;100451.97;;;17.15;70.65
56400;BME280;42298;53.638;9.876;2022-10-15T06:35:25;100460.16;;;17.24;70.93
56400;BME280;42298;53.638;9.876;2022-10-15T06:37:51;100462.47;;;17.22;70.64
56400;BME280;42298;53.638;9.876;2022-10-15T06:40:16;100468.41;;;17.21;70.88
56400;BME280;42298;53.638;9.876;2022-10-15T06:42:42;100460.69;;;17.30;70.73
56400;BME280;42298;53.638;9.876;2022-10-15T06:45:08;100459.59;;;17.34;70.34
56400;BME280;42298;53.638;9.876;2022-10-15T06:47:38;100460.69;;;17.30;70.28
56400;BME280;42298;53.638;9.876;2022-10-15T06:50:04;100459.59;;;17.18;70.46
56400;BME280;42298;53.638;9.876;2022-10-15T06:52:31;100460.25;;;17.12;70.76
56400;BME280;42298;53.638;9.876;2022-10-15T06:54:56;100462.22;;;17.11;70.66
56400;BME280;42298;53.638;9.876;2022-10-15T06:57:22;100461.75;;;17.09;70.69
56400;BME280;42298;53.638;9.876;2022-10-15T06:59:49;100455.78;;;17.07;70.78
56400;BME280;42298;53.638;9.876;2022-10-15T07:02:14;100461.41;;;17.11;70.84
56400;BME280;42298;53.638;9.876;2022-10-15T07:04:42;100464.63;;;17.13;70.67
56400;BME280;42298;53.638;9.876;2022-10-15T07:07:07;100460.25;;;17.12;70.60
56400;BME280;42298;53.638;9.876;2022-10-15T07:09:32;100454.31;;;17.13;70.29
56400;BME280;42298;53.638;9.876;2022-10-15T07:11:59;100473.97;;;17.21;70.60
56400;BME280;42298;53.638;9.876;2022-10-15T07:14:25;100464.03;;;17.20;70.20
56400;BME280;42298;53.638;9.876;2022-10-15T07:16:50;100462.84;;;17.21;69.88
56400;BME280;42298;53.638;9.876;2022-10-15T07:19:15;100470.94;;;17.26;70.38
56400;BME280;42298;53.638;9.876;2022-10-15T07:21:40;100469.03;;;17.30;70.63
56400;BME280;42298;53.638;9.876;2022-10-15T07:24:06;100465.72;;;17.24;70.16
56400;BME280;42298;53.638;9.876;2022-10-15T07:26:31;100472.16;;;17.28;70.37
56400;BME280;42298;53.638;9.876;2022-10-15T07:28:56;100468.88;;;17.23;71.02
56400;BME280;42298;53.638;9.876;2022-10-15T07:31:22;100466.50;;;17.40;70.57
56400;BME280;42298;53.638;9.876;2022-10-15T07:33:48;100474.69;;;17.49;69.93
56400;BME280;42298;53.638;9.876;2022-10-15T07:36:13;100471.06;;;17.48;69.73
56400;BME280;42298;53.638;9.876;2022-10-15T07:38:39;100462.97;;;17.59;70.11
56400;BME280;42298;53.638;9.876;2022-10-15T07:41:05;100466.94;;;17.58;69.54
56400;BME280;42298;53.638;9.876;2022-10-15T07:43:32;100469.16;;;17.68;69.85
56400;BME280;42298;53.638;9.876;2022-10-15T08:01:44;100467.88;;;18.00;68.37
56400;BME280;42298;53.638;9.876;2022-10-15T08:04:09;100435.22;;;17.81;67.77
56400;BME280;42298;53.638;9.876;2022-10-15T08:06:35;100457.31;;;18.09;67.51
56400;BME280;42298;53.638;9.876;2022-10-15T08:09:00;100468.16;;;18.33;67.56
56400;BME280;42298;53.638;9.876;2022-10-15T08:17:44;100486.88;;;18.51;66.75
56400;BME280;42298;53.638;9.876;2022-10-15T08:20:13;100483.09;;;18.40;66.18
56400;BME280;42298;53.638;9.876;2022-10-15T08:22:39;100463.50;;;18.37;66.57
56400;BME280;42298;53.638;9.876;2022-10-15T08:25:11;100466.19;;;18.33;65.77
56400;BME280;42298;53.638;9.876;2022-10-15T08:28:12;100485.44;;;18.38;65.12
56400;BME280;42298;53.638;9.876;2022-10-15T08:30:38;100464.34;;;18.22;65.83
56400;BME280;42298;53.638;9.876;2022-10-15T08:33:08;100489.84;;;18.39;65.73
56400;BME280;42298;53.638;9.876;2022-10-15T08:35:51;100476.63;;;18.55;66.27
56400;BME280;42298;53.638;9.876;2022-10-15T08:38:46;100492.03;;;18.91;65.79
56400;BME280;42298;53.638;9.876;2022-10-15T08:44:28;100462.06;;;19.33;64.20
56400;BME280;42298;53.638;9.876;2022-10-15T08:53:07;100484.75;;;20.10;61.55
56400;BME280;42298;53.638;9.876;2022-10-15T08:55:59;100492.03;;;20.14;60.35
56400;BME280;42298;53.638;9.876;2022-10-15T09:10:46;100500.91;;;21.80;55.36
56400;BME280;42298;53.638;9.876;2022-10-15T09:13:50;100489.47;;;21.56;55.59
56400;BME280;42298;53.638;9.876;2022-10-15T09:16:37;100510.63;;;21.46;57.10
56400;BME280;42298;53.638;9.876;2022-10-15T09:19:13;100522.06;;;21.24;56.47
56400;BME280;42298;53.638;9.876;2022-10-15T09:21:41;100512.59;;;20.99;57.00
56400;BME280;42298;53.638;9.876;2022-10-15T09:24:09;100511.09;;;21.08;57.84
56400;BME280;42298;53.638;9.876;2022-10-15T09:32:47;100508.81;;;20.84;58.16
56400;BME280;42298;53.638;9.876;2022-10-15T09:43:27;100497.03;;;21.45;57.16
56400;BME280;42298;53.638;9.876;2022-10-15T09:45:56;100486.28;;;21.54;56.58
56400;BME280;42298;53.638;9.876;2022-10-15T09:48:22;100497.22;;;21.73;55.36
56400;BME280;42298;53.638;9.876;2022-10-15T09:51:03;100484.06;;;21.80;55.89
56400;BME280;42298;53.638;9.876;2022-10-15T09:56:18;100491.94;;;22.25;55.09
56400;BME280;42298;53.638;9.876;2022-10-15T09:58:57;100488.31;;;22.25;54.41
56400;BME280;42298;53.638;9.876;2022-10-15T10:01:34;100492.38;;;22.41;54.32
56400;BME280;42298;53.638;9.876;2022-10-15T10:04:16;100492.38;;;22.38;54.47
56400;BME280;42298;53.638;9.876;2022-10-15T10:06:53;100487.16;;;22.40;54.33
56400;BME280;42298;53.638;9.876;2022-10-15T10:09:28;100482.81;;;22.53;54.10
56400;BME280;42298;53.638;9.876;2022-10-15T10:11:59;100477.19;;;22.49;53.97
56400;BME280;42298;53.638;9.876;2022-10-15T10:14:30;100483.56;;;22.43;53.91
56400;BME280;42298;53.638;9.876;2022-10-15T10:17:12;100483.66;;;22.57;54.02
56400;BME280;42298;53.638;9.876;2022-10-15T10:19:39;100483.94;;;22.38;53.66
56400;BME280;42298;53.638;9.876;2022-10-15T10:22:12;100488.69;;;22.20;53.67
56400;BME280;42298;53.638;9.876;2022-10-15T10:24:38;100478.69;;;22.22;53.20
56400;BME280;42298;53.638;9.876;2022-10-15T10:27:26;100482.34;;;22.30;53.63
56400;BME280;42298;53.638;9.876;2022-10-15T10:29:57;100485.94;;;22.27;54.09
56400;BME280;42298;53.638;9.876;2022-10-15T10:32:27;100477.06;;;22.21;53.68
56400;BME280;42298;53.638;9.876;2022-10-15T10:34:54;100474.69;;;22.23;54.46
56400;BME280;42298;53.638;9.876;2022-10-15T10:37:20;100475.94;;;22.33;53.44
56400;BME280;42298;53.638;9.876;2022-10-15T10:39:59;100477.22;;;22.53;54.23
56400;BME280;42298;53.638;9.876;2022-10-15T10:42:31;100478.88;;;22.75;53.05
56400;BME280;42298;53.638;9.876;2022-10-15T10:45:22;100476.06;;;22.68;51.99
56400;BME280;42298;53.638;9.876;2022-10-15T10:47:48;100482.09;;;22.77;52.65
56400;BME280;42298;53.638;9.876;2022-10-15T10:50:34;100478.94;;;23.03;52.03
56400;BME280;42298;53.638;9.876;2022-10-15T10:53:23;100472.88;;;22.80;52.09
56400;BME280;42298;53.638;9.876;2022-10-15T10:55:50;100482.03;;;22.56;52.60
56400;BME280;42298;53.638;9.876;2022-10-15T10:58:19;100473.94;;;22.44;52.87
56400;BME280;42298;53.638;9.876;2022-10-15T11:00:48;100469.09;;;22.27;52.80
56400;BME280;42298;53.638;9.876;2022-10-15T11:05:46;100454.19;;;22.12;54.35
56400;BME280;42298;53.638;9.876;2022-10-15T11:08:23;100462.59;;;22.12;53.87
56400;BME280;42298;53.638;9.876;2022-10-15T11:16:23;100463.44;;;22.16;53.58
56400;BME280;42298;53.638;9.876;2022-10-15T11:22:17;100470.47;;;21.86;53.75
56400;BME280;42298;53.638;9.876;2022-10-15T11:30:57;100466.91;;;21.96;53.79
56400;BME280;42298;53.638;9.876;2022-10-15T11:36:27;100453.00;;;22.17;53.69
56400;BME280;42298;53.638;9.876;2022-10-15T11:47:53;100453.41;;;22.19;52.42
56400;BME280;42298;53.638;9.876;2022-10-15T11:55:42;100441.69;;;21.96;52.32
56400;BME280;42298;53.638;9.876;2022-10-15T11:58:14;100454.41;;;21.79;52.32
56400;BME280;42298;53.638;9.876;2022-10-15T12:00:53;100446.47;;;21.92;52.22
56400;BME280;42298;53.638;9.876;2022-10-15T12:03:24;100448.94;;;22.04;52.09
56400;BME280;42298;53.638;9.876;2022-10-15T12:05:54;100445.72;;;22.02;51.60
56400;BME280;42298;53.638;9.876;2022-10-15T12:08:22;100441.25;;;21.87;52.83
56400;BME280;42298;53.638;9.876;2022-10-15T12:11:04;100444.88;;;21.91;52.45
56400;BME280;42298;53.638;9.876;2022-10-15T12:13:43;100443.94;;;21.73;52.46
56400;BME280;42298;53.638;9.876;2022-10-15T12:19:19;100418.41;;;21.85;53.01
56400;BME280;42298;53.638;9.876;2022-10-15T12:32:43;100394.34;;;21.77;51.00
56400;BME280;42298;53.638;9.876;2022-10-15T12:37:39;100377.09;;;21.75;52.82
56400;BME280;42298;53.638;9.876;2022-10-15T12:43:01;100386.38;;;21.93;52.00
56400;BME280;42298;53.638;9.876;2022-10-15T13:43:53;100378.72;;;21.76;52.71
56400;BME280;42298;53.638;9.876;2022-10-15T13:46:44;100378.72;;;21.79;52.80
56400;BME280;42298;53.638;9.876;2022-10-15T13:49:22;100321.28;;;21.42;51.73
56400;BME280;42298;53.638;9.876;2022-10-15T13:51:50;100326.94;;;21.52;51.85
56400;BME280;42298;53.638;9.876;2022-10-15T13:54:19;100314.88;;;21.48;52.31
56400;BME280;42298;53.638;9.876;2022-10-15T13:56:51;100339.78;;;21.64;52.45
56400;BME280;42298;53.638;9.876;2022-10-15T13:59:18;100339.75;;;21.57;52.36
56400;BME280;42298;53.638;9.876;2022-10-15T14:01:46;100346.97;;;21.58;52.23
56400;BME280;42298;53.638;9.876;2022-10-15T14:04:15;100347.34;;;21.53;52.90
56400;BME280;42298;53.638;9.876;2022-10-15T14:06:40;100305.19;;;21.28;52.66
56400;BME280;42298;53.638;9.876;2022-10-15T14:09:18;100347.81;;;21.65;52.61
56400;BME280;42298;53.638;9.876;2022-10-15T14:11:44;100335.81;;;21.68;52.61
56400;BME280;42298;53.638;9.876;2022-10-15T14:16:58;100321.34;;;21.59;52.89
56400;BME280;42298;53.638;9.876;2022-10-15T14:19:25;100316.94;;;21.58;52.96
56400;BME280;42298;53.638;9.876;2022-10-15T14:21:54;100322.94;;;21.53;53.37
56400;BME280;42298;53.638;9.876;2022-10-15T14:24:25;100316.03;;;21.37;53.21
56400;BME280;42298;53.638;9.876;2022-10-15T14:26:52;100320.81;;;21.29;53.69
56400;BME280;42298;53.638;9.876;2022-10-15T14:29:27;100310.28;;;21.12;53.90
56400;BME280;42298;53.638;9.876;2022-10-15T14:31:58;100323.50;;;21.12;54.45
56400;BME280;42298;53.638;9.876;2022-10-15T14:34:35;100325.06;;;21.09;54.79
56400;BME280;42298;53.638;9.876;2022-10-15T14:37:27;100284.13;;;20.91;54.71
56400;BME280;42298;53.638;9.876;2022-10-15T14:42:34;100290.25;;;21.07;54.71
56400;BME280;42298;53.638;9.876;2022-10-15T14:47:47;100316.38;;;21.25;54.55
56400;BME280;42298;53.638;9.876;2022-10-15T14:50:13;100309.50;;;21.15;54.67
56400;BME280;42298;53.638;9.876;2022-10-15T14:52:47;100305.28;;;20.88;55.12
56400;BME280;42298;53.638;9.876;2022-10-15T14:55:32;100337.03;;;21.03;55.20
56400;BME280;42298;53.638;9.876;2022-10-15T14:58:07;100339.06;;;21.06;55.53
56400;BME280;42298;53.638;9.876;2022-10-15T15:00:45;100325.06;;;21.06;55.53
56400;BME280;42298;53.638;9.876;2022-10-15T15:03:23;100305.75;;;20.94;55.69
56400;BME280;42298;53.638;9.876;2022-10-15T15:05:52;100332.75;;;21.19;55.66
56400;BME280;42298;53.638;9.876;2022-10-15T15:08:19;100295.00;;;20.99;55.40
56400;BME280;42298;53.638;9.876;2022-10-15T15:10:45;100273.72;;;20.88;55.88
56400;BME280;42298;53.638;9.876;2022-10-15T15:13:16;100292.78;;;20.71;56.61
56400;BME280;42298;53.638;9.876;2022-10-15T15:15:42;100281.72;;;20.89;56.74
56400;BME280;42298;53.638;9.876;2022-10-15T15:18:09;100321.81;;;20.97;57.14
56400;BME280;42298;53.638;9.876;2022-10-15T15:20:35;100312.59;;;20.96;57.55
56400;BME280;42298;53.638;9.876;2022-10-15T15:23:00;100293.81;;;21.00;56.75
56400;BME280;42298;53.638;9.876;2022-10-15T15:25:33;100273.44;;;21.00;56.49
56400;BME280;42298;53.638;9.876;2022-10-15T15:28:00;100315.41;;;21.00;56.43
56400;BME280;42298;53.638;9.876;2022-10-15T15:30:27;100327.00;;;20.98;56.93
56400;BME280;42298;53.638;9.876;2022-10-15T15:32:53;100299.78;;;20.99;56.99
56400;BME280;42298;53.638;9.876;2022-10-15T15:35:34;100324.38;;;21.26;56.77
56400;BME280;42298;53.638;9.876;2022-10-15T15:38:01;100324.81;;;21.28;56.52
56400;BME280;42298;53.638;9.876;2022-10-15T15:40:26;100287.25;;;20.82;56.85
56400;BME280;42298;53.638;9.876;2022-10-15T15:42:52;100308.97;;;20.96;57.34
56400;BME280;42298;53.638;9.876;2022-10-15T15:45:21;100329.41;;;21.00;57.71
56400;BME280;42298;53.638;9.876;2022-10-15T15:47:47;100323.53;;;21.19;57.29
56400;BME280;42298;53.638;9.876;2022-10-15T15:50:14;100323.53;;;21.19;57.48
56400;BME280;42298;53.638;9.876;2022-10-15T15:52:39;100313.78;;;20.99;58.12
56400;BME280;42298;53.638;9.876;2022-10-15T15:55:05;100317.81;;;20.98;58.08
56400;BME280;42298;53.638;9.876;2022-10-15T15:57:30;100303.31;;;20.89;58.91
56400;BME280;42298;53.638;9.876;2022-10-15T15:59:56;100283.97;;;20.69;59.78
56400;BME280;42298;53.638;9.876;2022-10-15T16:02:21;100300.69;;;20.59;60.24
56400;BME280;42298;53.638;9.876;2022-10-15T16:04:46;100308.66;;;20.53;60.50
56400;BME280;42298;53.638;9.876;2022-10-15T16:07:12;100307.84;;;20.53;60.76
56400;BME280;42298;53.638;9.876;2022-10-15T16:09:37;100274.81;;;20.25;61.49
56400;BME280;42298;53.638;9.876;2022-10-15T16:12:03;100287.34;;;20.38;61.51
56400;BME280;42298;53.638;9.876;2022-10-15T16:14:28;100305.75;;;20.43;61.81